createdAt,value
2023-10-26T00:02:07.540Z,97268.38
2023-10-26T00:04:36.250Z,97276.22
2023-10-26T00:07:07.312Z,97278.28
2023-10-26T00:09:36.153Z,97284.06
2023-10-26T00:12:05.593Z,97274.88
2023-10-26T00:14:35.670Z,97288.72
2023-10-26T00:17:04.584Z,97283.78
2023-10-26T00:19:34.018Z,97272.53
2023-10-26T00:22:02.823Z,97274.38
2023-10-26T00:24:32.889Z,97274.69
2023-10-26T00:27:01.732Z,97280.19
2023-10-26T00:29:31.026Z,97284.09
2023-10-26T00:31:59.768Z,97285.97
2023-10-26T00:34:28.620Z,97283.59
2023-10-26T00:36:57.397Z,97282.84
2023-10-26T00:39:26.287Z,97283.38
2023-10-26T00:41:57.210Z,97283.41
2023-10-26T00:44:25.917Z,97285.50
2023-10-26T00:46:55.928Z,97277.13
2023-10-26T00:49:24.727Z,97276.88
2023-10-26T00:51:54.729Z,97275.81
2023-10-26T00:54:24.335Z,97273.19
2023-10-26T00:56:53.149Z,97267.72
2023-10-26T00:59:23.432Z,97263.78
2023-10-26T01:01:52.832Z,97270.84
2023-10-26T01:04:21.532Z,97269.50
2023-10-26T01:06:50.214Z,97267.69
2023-10-26T01:09:18.945Z,97261.16
2023-10-26T01:11:48.144Z,97260.59
2023-10-26T01:14:17.941Z,97269.47
2023-10-26T01:16:48.109Z,97261.84
2023-10-26T01:19:16.797Z,97271.50
2023-10-26T01:21:53.801Z,97274.69
2023-10-26T01:24:22.827Z,97273.13
2023-10-26T01:26:51.566Z,97277.78
2023-10-26T01:29:20.776Z,97276.69
2023-10-26T01:31:50.347Z,97278.75
2023-10-26T01:34:19.112Z,97285.28
2023-10-26T01:36:48.019Z,97288.16
2023-10-26T01:39:18.865Z,97282.38
2023-10-26T01:41:48.588Z,97282.34
2023-10-26T01:44:17.329Z,97282.63
2023-10-26T01:46:46.015Z,97282.34
2023-10-26T01:49:15.036Z,97285.50
2023-10-26T01:51:43.716Z,97280.25
2023-10-26T01:54:12.926Z,97282.63
2023-10-26T01:56:43.105Z,97284.13
2023-10-26T01:59:11.778Z,97284.41
2023-10-26T02:01:40.408Z,97281.72
2023-10-26T02:04:09.066Z,97278.53
2023-10-26T02:06:37.835Z,97278.50
2023-10-26T02:09:06.694Z,97275.88
2023-10-26T02:11:35.403Z,97284.47
2023-10-26T02:14:05.543Z,97282.06
2023-10-26T02:16:34.260Z,97285.22
2023-10-26T02:19:03.145Z,97290.41
2023-10-26T02:21:32.641Z,97291.22
2023-10-26T02:24:01.309Z,97290.41
2023-10-26T02:26:30.047Z,97289.56
2023-10-26T02:28:58.730Z,97285.88
2023-10-26T02:31:28.755Z,97289.81
2023-10-26T02:33:57.470Z,97295.34
2023-10-26T02:36:26.190Z,97289.06
2023-10-26T02:38:54.892Z,97297.38
2023-10-26T02:41:23.739Z,97287.66
2023-10-26T02:43:52.444Z,97294.19
2023-10-26T02:46:21.140Z,97300.94
2023-10-26T02:48:51.254Z,97297.75
2023-10-26T02:51:20.069Z,97292.25
2023-10-26T02:53:48.859Z,97290.41
2023-10-26T02:56:17.604Z,97287.28
2023-10-26T02:58:46.434Z,97295.00
2023-10-26T03:01:15.226Z,97297.91
2023-10-26T03:03:44.142Z,97291.06
2023-10-26T03:06:14.432Z,97289.75
2023-10-26T03:08:43.067Z,97283.44
2023-10-26T03:11:11.776Z,97287.56
2023-10-26T03:13:40.482Z,97297.69
2023-10-26T03:16:09.188Z,97293.22
2023-10-26T03:18:38.265Z,97296.91
2023-10-26T03:21:07.154Z,97301.28
2023-10-26T03:23:37.802Z,97291.88
2023-10-26T03:26:11.305Z,97298.63
2023-10-26T03:28:40.025Z,97291.81
2023-10-26T03:31:12.639Z,97293.16
2023-10-26T03:33:41.646Z,97291.81
2023-10-26T03:36:15.516Z,97280.91
2023-10-26T03:38:46.080Z,97281.16
2023-10-26T03:41:15.239Z,97283.41
2023-10-26T03:43:44.089Z,97277.19
2023-10-26T03:46:12.751Z,97287.56
2023-10-26T03:48:41.480Z,97285.28
2023-10-26T03:51:10.269Z,97289.88
2023-10-26T03:53:39.082Z,97295.84
2023-10-26T03:56:09.289Z,97286.75
2023-10-26T03:58:38.007Z,97286.44
2023-10-26T04:01:06.646Z,97285.94
2023-10-26T04:03:35.421Z,97287.56
2023-10-26T04:06:04.291Z,97281.47
2023-10-26T04:08:33.179Z,97287.75
2023-10-26T04:11:01.877Z,97277.94
2023-10-26T04:13:32.550Z,97275.88
2023-10-26T04:16:01.838Z,97270.09
2023-10-26T04:18:31.131Z,97258.72
2023-10-26T04:20:59.915Z,97257.91
2023-10-26T04:23:28.672Z,97271.28
2023-10-26T04:25:57.484Z,97266.31
2023-10-26T04:28:26.298Z,97262.34
2023-10-26T04:30:56.401Z,97258.16
2023-10-26T04:33:25.246Z,97253.00
2023-10-26T04:35:56.298Z,97258.97
2023-10-26T04:38:25.091Z,97258.66
2023-10-26T04:40:53.832Z,97250.59
2023-10-26T04:43:22.531Z,97260.25
2023-10-26T04:45:51.309Z,97273.31
2023-10-26T04:48:21.374Z,97260.25
2023-10-26T04:50:50.531Z,97266.31
2023-10-26T04:53:19.294Z,97252.59
2023-10-26T04:55:47.955Z,97250.69
2023-10-26T04:58:16.673Z,97251.69
2023-10-26T05:00:45.378Z,97243.78
2023-10-26T05:03:14.222Z,97240.94
2023-10-26T05:05:44.391Z,97243.78
2023-10-26T05:08:13.180Z,97238.56
2023-10-26T05:10:42.639Z,97233.41
2023-10-26T05:13:11.707Z,97227.84
2023-10-26T05:15:40.560Z,97225.00
2023-10-26T05:18:09.454Z,97228.44
2023-10-26T05:20:39.895Z,97228.72
2023-10-26T05:23:09.981Z,97234.25
2023-10-26T05:25:39.122Z,97227.47
2023-10-26T05:28:07.935Z,97229.53
2023-10-26T05:30:36.744Z,97230.56
2023-10-26T05:33:05.865Z,97228.44
2023-10-26T05:35:34.856Z,97233.41
2023-10-26T05:38:04.931Z,97224.56
2023-10-26T05:40:35.055Z,97221.72
2023-10-26T05:43:04.168Z,97222.50
2023-10-26T05:45:38.315Z,97215.47
2023-10-26T05:48:10.052Z,97222.00
2023-10-26T05:50:42.884Z,97220.19
2023-10-26T05:53:11.861Z,97208.78
2023-10-26T05:55:42.188Z,97206.41
2023-10-26T05:58:11.305Z,97205.91
2023-10-26T06:00:40.422Z,97206.69
2023-10-26T06:03:09.470Z,97198.09
2023-10-26T06:05:38.234Z,97192.22
2023-10-26T06:08:07.129Z,97192.00
2023-10-26T06:10:35.862Z,97200.09
2023-10-26T06:13:06.049Z,97203.88
2023-10-26T06:15:34.807Z,97209.00
2023-10-26T06:18:03.595Z,97204.91
2023-10-26T06:20:32.305Z,97206.00
2023-10-26T06:23:01.140Z,97210.09
2023-10-26T06:25:30.345Z,97194.22
2023-10-26T06:27:59.105Z,97207.66
2023-10-26T06:30:29.465Z,97200.78
2023-10-26T06:33:00.242Z,97197.16
2023-10-26T06:35:29.189Z,97202.66
2023-10-26T06:37:57.968Z,97208.72
2023-10-26T06:40:26.695Z,97215.84
2023-10-26T06:42:55.434Z,97212.53
2023-10-26T06:45:24.227Z,97202.69
2023-10-26T06:47:54.483Z,97204.59
2023-10-26T06:50:24.447Z,97197.34
2023-10-26T06:52:53.341Z,97199.81
2023-10-26T06:55:30.057Z,97213.88
2023-10-26T06:57:59.383Z,97207.75
2023-10-26T07:00:28.167Z,97203.94
2023-10-26T07:02:58.663Z,97214.97
2023-10-26T07:05:27.877Z,97219.03
2023-10-26T07:07:56.637Z,97215.72
2023-10-26T07:10:25.465Z,97200.59
2023-10-26T07:12:54.314Z,97203.75
2023-10-26T07:15:23.181Z,97206.31
2023-10-26T07:17:52.036Z,97209.66
2023-10-26T07:20:22.289Z,97216.25
2023-10-26T07:22:51.248Z,97212.19
2023-10-26T07:25:20.128Z,97206.50
2023-10-26T07:27:48.912Z,97200.06
2023-10-26T07:30:17.885Z,97200.63
2023-10-26T07:32:46.719Z,97199.38
2023-10-26T07:35:16.535Z,97210.38
2023-10-26T07:37:55.152Z,97210.38
2023-10-26T07:40:34.639Z,97207.78
2023-10-26T07:43:03.454Z,97212.69
2023-10-26T07:45:32.360Z,97213.63
2023-10-26T07:48:01.810Z,97216.28
2023-10-26T07:50:31.256Z,97205.09
2023-10-26T07:53:01.377Z,97202.75
2023-10-26T07:55:30.247Z,97187.06
2023-10-26T07:57:59.023Z,97202.03
2023-10-26T08:00:27.841Z,97193.41
2023-10-26T08:02:56.707Z,97199.41
2023-10-26T08:05:25.520Z,97197.56
2023-10-26T08:07:54.453Z,97197.59
2023-10-26T08:10:27.413Z,97194.75
2023-10-26T08:12:56.507Z,97184.13
2023-10-26T08:16:10.702Z,97189.34
2023-10-26T08:18:15.026Z,97184.38
2023-10-26T08:20:43.979Z,97180.72
2023-10-26T08:23:12.846Z,97183.13
2023-10-26T08:25:43.183Z,97179.00
2023-10-26T08:28:12.108Z,97187.94
2023-10-26T08:30:40.966Z,97185.31
2023-10-26T08:33:11.106Z,97181.63
2023-10-26T08:35:42.079Z,97182.75
2023-10-26T08:38:10.931Z,97181.38
2023-10-26T08:40:39.674Z,97173.81
2023-10-26T08:43:10.136Z,97185.34
2023-10-26T08:45:39.572Z,97180.13
2023-10-26T08:48:09.629Z,97185.63
2023-10-26T08:50:39.536Z,97189.59
2023-10-26T08:53:08.610Z,97198.25
2023-10-26T08:55:38.903Z,97221.03
2023-10-26T08:58:09.623Z,97218.94
2023-10-26T09:00:39.420Z,97215.78
2023-10-26T09:03:08.428Z,97213.41
2023-10-26T09:05:53.216Z,97206.13
2023-10-26T09:08:24.046Z,97205.56
2023-10-26T09:10:53.144Z,97207.47
2023-10-26T09:13:28.070Z,97203.81
2023-10-26T09:16:00.377Z,97191.75
2023-10-26T09:18:29.729Z,97199.38
2023-10-26T09:21:06.621Z,97198.84
2023-10-26T09:23:36.521Z,97202.78
2023-10-26T09:26:06.456Z,97190.19
2023-10-26T09:28:52.739Z,97202.25
2023-10-26T09:31:22.013Z,97197.78
2023-10-26T09:33:51.823Z,97202.78
2023-10-26T09:36:21.699Z,97194.91
2023-10-26T09:38:50.792Z,97190.22
2023-10-26T09:41:21.379Z,97189.16
2023-10-26T09:43:50.445Z,97192.31
2023-10-26T09:47:10.235Z,97183.91
2023-10-26T09:49:40.925Z,97198.25
2023-10-26T09:52:27.660Z,97215.31
2023-10-26T09:58:12.370Z,97226.84
2023-10-26T10:01:12.068Z,97225.78
2023-10-26T10:03:46.167Z,97220.28
2023-10-26T10:07:01.979Z,97188.59
2023-10-26T10:09:32.780Z,97174.47
2023-10-26T10:12:32.414Z,97184.69
2023-10-26T10:15:22.585Z,97181.00
2023-10-26T10:18:05.037Z,97186.00
2023-10-26T10:20:35.501Z,97179.19
2023-10-26T10:23:04.964Z,97178.41
2023-10-26T10:26:19.732Z,97166.09
2023-10-26T10:28:53.868Z,97164.28
2023-10-26T10:31:26.135Z,97160.34
2023-10-26T10:34:06.882Z,97162.97
2023-10-26T10:37:09.665Z,97169.78
2023-10-26T10:39:38.706Z,97171.91
2023-10-26T10:42:13.343Z,97177.66
2023-10-26T10:44:43.522Z,97178.97
2023-10-26T10:47:12.503Z,97187.31
2023-10-26T10:49:41.440Z,97190.75
2023-10-26T10:52:15.441Z,97187.06
2023-10-26T10:54:56.701Z,97210.09
2023-10-26T10:57:35.306Z,97202.78
2023-10-26T11:00:05.007Z,97189.16
2023-10-26T11:02:34.097Z,97184.19
2023-10-26T11:05:15.724Z,97178.16
2023-10-26T11:07:48.223Z,97177.41
2023-10-26T11:10:17.099Z,97182.59
2023-10-26T11:12:52.751Z,97182.63
2023-10-26T11:15:22.038Z,97172.16
2023-10-26T11:17:51.535Z,97167.94
2023-10-26T11:20:39.577Z,97171.34
2023-10-26T11:23:10.085Z,97167.94
2023-10-26T11:25:39.688Z,97172.13
2023-10-26T11:28:10.818Z,97163.97
2023-10-26T11:30:49.771Z,97164.50
2023-10-26T11:33:31.187Z,97180.22
2023-10-26T11:36:00.258Z,97168.16
2023-10-26T11:38:29.223Z,97168.69
2023-10-26T11:40:57.976Z,97165.53
2023-10-26T11:43:35.599Z,97180.50
2023-10-26T11:46:05.447Z,97178.63
2023-10-26T11:48:35.069Z,97179.38
2023-10-26T11:51:07.897Z,97175.25
2023-10-26T11:53:40.140Z,97177.84
2023-10-26T11:56:09.019Z,97183.31
2023-10-26T11:58:39.632Z,97181.47
2023-10-26T12:01:08.528Z,97167.03
2023-10-26T12:03:37.884Z,97157.31
2023-10-26T12:06:07.344Z,97142.06
2023-10-26T12:08:36.111Z,97133.94
2023-10-26T12:11:05.363Z,97124.41
2023-10-26T12:13:35.854Z,97123.78
2023-10-26T12:16:06.941Z,97122.09
2023-10-26T12:18:37.394Z,97118.84
2023-10-26T12:21:06.209Z,97111.13
2023-10-26T12:23:35.055Z,97115.78
2023-10-26T12:26:04.040Z,97112.03
2023-10-26T12:28:32.914Z,97105.19
2023-10-26T12:31:01.787Z,97110.94
2023-10-26T12:33:31.892Z,97096.19
2023-10-26T12:36:01.832Z,97099.06
2023-10-26T12:38:30.575Z,97100.84
2023-10-26T12:40:59.417Z,97087.38
2023-10-26T12:43:28.172Z,97091.56
2023-10-26T12:45:56.964Z,97089.50
2023-10-26T12:48:25.791Z,97078.22
2023-10-26T12:50:55.905Z,97073.97
2023-10-26T12:53:24.653Z,97071.88
2023-10-26T12:55:53.462Z,97069.44
2023-10-26T12:58:22.258Z,97076.31
2023-10-26T13:00:51.140Z,97077.25
2023-10-26T13:03:19.960Z,97076.63
2023-10-26T13:05:48.792Z,97070.16
2023-10-26T13:08:19.099Z,97077.25
2023-10-26T13:10:48.030Z,97055.59
2023-10-26T13:13:16.826Z,97067.63
2023-10-26T13:15:45.636Z,97059.81
2023-10-26T13:18:14.364Z,97069.81
2023-10-26T13:20:43.112Z,97054.59
2023-10-26T13:23:12.417Z,97057.78
2023-10-26T13:25:42.776Z,97056.00
2023-10-26T13:28:12.815Z,97060.97
2023-10-26T13:30:41.660Z,97060.41
2023-10-26T13:33:11.029Z,97046.72
2023-10-26T13:35:39.878Z,97044.16
2023-10-26T13:38:13.392Z,97037.03
2023-10-26T13:40:44.689Z,97018.50
2023-10-26T13:43:16.826Z,97026.25
2023-10-26T13:45:46.320Z,97021.47
2023-10-26T13:48:16.135Z,97025.97
2023-10-26T13:50:48.576Z,97026.97
2023-10-26T13:53:17.927Z,97029.94
2023-10-26T13:55:48.127Z,97036.16
2023-10-26T13:58:17.008Z,97024.19
2023-10-26T14:00:45.823Z,97016.91
2023-10-26T14:03:14.619Z,97021.31
2023-10-26T14:05:52.100Z,97019.59
2023-10-26T14:08:21.028Z,97016.88
2023-10-26T14:11:03.701Z,97018.22
2023-10-26T14:13:32.660Z,97013.81
2023-10-26T14:16:01.762Z,97013.53
2023-10-26T14:18:30.710Z,97019.06
2023-10-26T14:20:59.575Z,97021.69
2023-10-26T14:23:28.416Z,97025.84
2023-10-26T14:25:57.344Z,97015.63
2023-10-26T14:28:27.569Z,97017.25
2023-10-26T14:30:56.461Z,97001.47
2023-10-26T14:33:25.415Z,97006.75
2023-10-26T14:35:54.422Z,96997.03
2023-10-26T14:38:23.218Z,97002.28
2023-10-26T14:40:57.434Z,97007.53
2023-10-26T14:43:28.324Z,97004.69
2023-10-26T14:45:57.354Z,97000.75
2023-10-26T14:48:26.351Z,97010.78
2023-10-26T14:50:59.597Z,97001.84
2023-10-26T14:53:28.457Z,97002.38
2023-10-26T14:56:01.799Z,96999.25
2023-10-26T14:58:31.996Z,97002.94
2023-10-26T15:01:00.829Z,96999.81
2023-10-26T15:03:29.787Z,96999.03
2023-10-26T15:06:01.833Z,97006.09
2023-10-26T15:08:30.837Z,97004.03
2023-10-26T15:11:24.214Z,96995.69
2023-10-26T15:13:51.767Z,96995.19
2023-10-26T15:16:20.765Z,96997.53
2023-10-26T15:18:49.662Z,97005.69
2023-10-26T15:21:18.505Z,97007.59
2023-10-26T15:23:47.204Z,97010.19
2023-10-26T15:26:16.003Z,96997.31
2023-10-26T15:28:44.882Z,97006.50
2023-10-26T15:31:15.064Z,97002.91
2023-10-26T15:33:43.872Z,96995.03
2023-10-26T15:36:12.708Z,96994.69
2023-10-26T15:38:43.100Z,96997.81
2023-10-26T15:41:12.520Z,96995.19
2023-10-26T15:43:41.298Z,96995.72
2023-10-26T15:46:10.158Z,96998.44
2023-10-26T15:49:33.006Z,97006.41
2023-10-26T15:51:29.073Z,97015.13
2023-10-26T15:53:57.886Z,97016.69
2023-10-26T15:56:26.651Z,97023.25
2023-10-26T15:58:55.586Z,97012.94
2023-10-26T16:01:25.234Z,97014.81
2023-10-26T16:03:55.404Z,97019.78
2023-10-26T16:06:24.117Z,97031.84
2023-10-26T16:08:52.910Z,97028.50
2023-10-26T16:11:21.780Z,97026.16
2023-10-26T16:13:50.613Z,97030.38
2023-10-26T16:16:19.535Z,97036.19
2023-10-26T16:18:48.398Z,97038.56
2023-10-26T16:21:18.666Z,97046.94
2023-10-26T16:23:47.423Z,97050.91
2023-10-26T16:26:16.271Z,97049.91
2023-10-26T16:28:47.029Z,97044.41
2023-10-26T16:31:17.211Z,97044.69
2023-10-26T16:33:46.097Z,97041.28
2023-10-26T16:36:14.823Z,97042.06
2023-10-26T16:38:45.018Z,97042.59
2023-10-26T16:41:13.852Z,97039.78
2023-10-26T16:43:44.019Z,97038.22
2023-10-26T16:46:14.097Z,97033.50
2023-10-26T16:48:44.103Z,97034.53
2023-10-26T16:51:12.908Z,97039.03
2023-10-26T16:53:42.116Z,97041.41
2023-10-26T16:56:12.406Z,97043.53
2023-10-26T16:58:41.257Z,97046.44
2023-10-26T17:01:11.513Z,97054.81
2023-10-26T17:03:40.856Z,97062.75
2023-10-26T17:06:11.541Z,97058.03
2023-10-26T17:08:40.392Z,97059.31
2023-10-26T17:11:12.138Z,97059.38
2023-10-26T17:13:40.910Z,97051.50
2023-10-26T17:16:10.631Z,97057.50
2023-10-26T17:18:39.454Z,97050.94
2023-10-26T17:21:09.286Z,97056.22
2023-10-26T17:23:38.095Z,97053.59
2023-10-26T17:26:06.874Z,97049.66
2023-10-26T17:28:37.050Z,97045.19
2023-10-26T17:31:07.047Z,97046.53
2023-10-26T17:33:36.298Z,97046.81
2023-10-26T17:36:05.963Z,97042.59
2023-10-26T17:38:34.817Z,97046.81
2023-10-26T17:41:10.103Z,97051.53
2023-10-26T17:43:40.366Z,97050.47
2023-10-26T17:46:09.759Z,97052.81
2023-10-26T17:48:38.816Z,97056.47
2023-10-26T17:51:10.008Z,97066.72
2023-10-26T17:53:42.872Z,97059.38
2023-10-26T17:56:14.268Z,97054.91
2023-10-26T17:58:44.401Z,97056.25
2023-10-26T18:01:14.901Z,97055.44
2023-10-26T18:03:43.917Z,97059.94
2023-10-26T18:06:12.780Z,97064.41
2023-10-26T18:08:42.124Z,97066.50
2023-10-26T18:11:10.972Z,97064.44
2023-10-26T18:13:39.902Z,97067.31
2023-10-26T18:16:10.472Z,97060.50
2023-10-26T18:18:40.278Z,97060.56
2023-10-26T18:21:09.831Z,97050.06
2023-10-26T18:23:38.988Z,97055.88
2023-10-26T18:26:09.357Z,97056.38
2023-10-26T18:28:38.980Z,97053.00
2023-10-26T18:31:12.331Z,97048.28
2023-10-26T18:33:42.368Z,97046.22
2023-10-26T18:36:12.628Z,97048.56
2023-10-26T18:38:42.577Z,97045.72
2023-10-26T18:41:18.495Z,97058.31
2023-10-26T18:43:47.850Z,97049.94
2023-10-26T18:46:18.392Z,97053.34
2023-10-26T18:48:47.812Z,97063.28
2023-10-26T18:51:17.869Z,97058.63
2023-10-26T18:53:47.280Z,97056.78
2023-10-26T18:56:16.929Z,97058.88
2023-10-26T18:58:46.234Z,97057.53
2023-10-26T19:01:15.358Z,97057.53
2023-10-26T19:04:00.737Z,97049.94
2023-10-26T19:06:31.713Z,97048.91
2023-10-26T19:09:00.756Z,97049.94
2023-10-26T19:11:30.042Z,97049.97
2023-10-26T19:13:59.361Z,97051.00
2023-10-26T19:16:28.183Z,97050.75
2023-10-26T19:18:58.623Z,97052.34
2023-10-26T19:21:28.553Z,97060.44
2023-10-26T19:23:57.537Z,97060.97
2023-10-26T19:26:26.378Z,97055.19
2023-10-26T19:28:55.511Z,97055.47
2023-10-26T19:31:24.996Z,97061.25
2023-10-26T19:33:53.964Z,97060.97
2023-10-26T19:36:24.431Z,97063.34
2023-10-26T19:38:53.474Z,97062.03
2023-10-26T19:41:22.566Z,97060.72
2023-10-26T19:43:51.461Z,97053.63
2023-10-26T19:46:20.497Z,97052.59
2023-10-26T19:48:49.720Z,97052.59
2023-10-26T19:51:19.118Z,97046.31
2023-10-26T19:53:49.321Z,97049.47
2023-10-26T19:56:18.564Z,97048.94
2023-10-26T19:58:47.824Z,97053.38
2023-10-26T20:01:16.751Z,97044.72
2023-10-26T20:03:46.961Z,97045.28
2023-10-26T20:06:16.099Z,97040.31
2023-10-26T20:08:44.895Z,97043.47
2023-10-26T20:11:15.050Z,97040.31
2023-10-26T20:13:43.871Z,97036.91
2023-10-26T20:16:12.934Z,97038.00
2023-10-26T20:18:43.016Z,97022.50
2023-10-26T20:21:12.030Z,97023.31
2023-10-26T20:23:40.790Z,97026.97
2023-10-26T20:26:09.685Z,97031.69
2023-10-26T20:28:39.854Z,97038.00
2023-10-26T20:31:08.707Z,97013.63
2023-10-26T20:33:37.517Z,97020.97
2023-10-26T20:36:06.937Z,97018.88
2023-10-26T20:38:35.696Z,97012.31
2023-10-26T20:41:04.642Z,97007.84
2023-10-26T20:43:33.445Z,96994.50
2023-10-26T20:46:03.761Z,96990.84
2023-10-26T20:48:33.127Z,96991.66
2023-10-26T20:51:07.455Z,96976.44
2023-10-26T20:53:36.495Z,96968.09
2023-10-26T20:56:06.619Z,96969.66
2023-10-26T20:58:36.061Z,96971.22
2023-10-26T21:01:11.094Z,96964.16
2023-10-26T21:03:40.713Z,96962.09
2023-10-26T21:06:11.125Z,96961.28
2023-10-26T21:08:40.738Z,96949.25
2023-10-26T21:11:14.154Z,96950.56
2023-10-26T21:13:43.137Z,96949.75
2023-10-26T21:16:13.487Z,96938.25
2023-10-26T21:18:43.044Z,96940.63
2023-10-26T21:21:12.167Z,96933.00
2023-10-26T21:23:41.416Z,96934.06
2023-10-26T21:26:12.105Z,96933.28
2023-10-26T21:28:42.816Z,96934.59
2023-10-26T21:31:13.572Z,96929.63
2023-10-26T21:33:42.408Z,96927.50
2023-10-26T21:36:12.445Z,96927.28
2023-10-26T21:38:41.446Z,96929.66
2023-10-26T21:41:10.745Z,96928.31
2023-10-26T21:43:39.627Z,96924.66
2023-10-26T21:46:09.403Z,96922.03
2023-10-26T21:48:39.693Z,96911.56
2023-10-26T21:51:09.898Z,96906.88
2023-10-26T21:53:40.102Z,96911.34
2023-10-26T21:56:09.054Z,96925.47
2023-10-26T21:58:37.956Z,96918.66
2023-10-26T22:01:08.224Z,96918.13
2023-10-26T22:03:37.131Z,96920.50
2023-10-26T22:06:07.675Z,96914.47
2023-10-26T22:08:36.449Z,96916.81
2023-10-26T22:11:05.485Z,96919.41
2023-10-26T22:13:34.347Z,96910.53
2023-10-26T22:16:03.190Z,96897.97
2023-10-26T22:18:32.034Z,96902.94
2023-10-26T22:21:03.315Z,96901.66
2023-10-26T22:23:33.504Z,96897.47
2023-10-26T22:26:03.400Z,96889.63
2023-10-26T22:28:32.130Z,96886.75
2023-10-26T22:31:04.913Z,96876.00
2023-10-26T22:33:38.191Z,96883.31
2023-10-26T22:36:07.770Z,96876.50
2023-10-26T22:38:38.056Z,96878.06
2023-10-26T22:41:10.815Z,96873.13
2023-10-26T22:43:39.716Z,96869.19
2023-10-26T22:46:08.551Z,96867.16
2023-10-26T22:48:37.269Z,96871.31
2023-10-26T22:51:06.200Z,96870.56
2023-10-26T22:53:35.071Z,96869.00
2023-10-26T22:56:05.832Z,96869.25
2023-10-26T22:58:34.603Z,96868.47
2023-10-26T23:01:06.347Z,96867.66
2023-10-26T23:03:35.099Z,96865.31
2023-10-26T23:06:04.385Z,96870.56
2023-10-26T23:08:34.311Z,96869.28
2023-10-26T23:11:03.142Z,96859.59
2023-10-26T23:13:33.259Z,96860.88
2023-10-26T23:16:02.136Z,96856.22
2023-10-26T23:18:31.137Z,96860.63
2023-10-26T23:20:59.826Z,96862.72
2023-10-26T23:23:28.580Z,96857.25
2023-10-26T23:25:57.367Z,96863.53
2023-10-26T23:28:26.236Z,96866.66
2023-10-26T23:30:56.400Z,96862.47
2023-10-26T23:33:25.133Z,96863.50
2023-10-26T23:35:57.742Z,96867.94
2023-10-26T23:38:27.854Z,96860.91
2023-10-26T23:40:56.574Z,96874.25
2023-10-26T23:43:25.465Z,96876.59
2023-10-26T23:45:55.356Z,96875.56
2023-10-26T23:48:25.538Z,96877.16
2023-10-26T23:50:54.594Z,96879.22
2023-10-26T23:53:23.509Z,96884.19
2023-10-26T23:55:52.232Z,96887.13
2023-10-26T23:58:20.903Z,96878.75
